sensor_id;sensor_type;location;lat;lon;timestamp;P1;durP1;ratioP1;P2;durP2;ratioP2
11671;SDS011;5892;43.412;24.612;2024-01-16T00:00:53;200.80;;;62.55;;
11671;SDS011;5892;43.412;24.612;2024-01-16T00:03:20;21.10;;;9.50;;
11671;SDS011;5892;43.412;24.612;2024-01-16T00:05:45;10.63;;;5.63;;
11671;SDS011;5892;43.412;24.612;2024-01-16T00:08:11;21.92;;;8.63;;
11671;SDS011;5892;43.412;24.612;2024-01-16T00:10:36;80.03;;;27.42;;
11671;SDS011;5892;43.412;24.612;2024-01-16T00:13:02;21.30;;;9.80;;
11671;SDS011;5892;43.412;24.612;2024-01-16T00:15:27;81.13;;;28.70;;
11671;SDS011;5892;43.412;24.612;2024-01-16T00:17:53;71.90;;;29.70;;
11671;SDS011;5892;43.412;24.612;2024-01-16T00:20:21;56.58;;;25.05;;
11671;SDS011;5892;43.412;24.612;2024-01-16T00:22:49;39.97;;;19.60;;
11671;SDS011;5892;43.412;24.612;2024-01-16T00:25:16;44.45;;;21.35;;
11671;SDS011;5892;43.412;24.612;2024-01-16T00:27:45;40.47;;;19.92;;
11671;SDS011;5892;43.412;24.612;2024-01-16T00:30:12;46.70;;;22.27;;
11671;SDS011;5892;43.412;24.612;2024-01-16T00:32:39;36.17;;;18.17;;
11671;SDS011;5892;43.412;24.612;2024-01-16T00:35:05;59.00;;;24.40;;
11671;SDS011;5892;43.412;24.612;2024-01-16T00:37:31;29.75;;;14.00;;
11671;SDS011;5892;43.412;24.612;2024-01-16T00:39:56;28.45;;;14.73;;
11671;SDS011;5892;43.412;24.612;2024-01-16T00:42:22;26.45;;;13.40;;
11671;SDS011;5892;43.412;24.612;2024-01-16T00:44:49;25.50;;;13.80;;
11671;SDS011;5892;43.412;24.612;2024-01-16T00:47:14;23.27;;;11.20;;
11671;SDS011;5892;43.412;24.612;2024-01-16T00:49:40;25.10;;;12.68;;
11671;SDS011;5892;43.412;24.612;2024-01-16T00:52:06;22.65;;;11.98;;
11671;SDS011;5892;43.412;24.612;2024-01-16T00:54:31;18.88;;;9.35;;
11671;SDS011;5892;43.412;24.612;2024-01-16T00:56:57;20.00;;;9.93;;
11671;SDS011;5892;43.412;24.612;2024-01-16T00:59:27;22.42;;;10.75;;
11671;SDS011;5892;43.412;24.612;2024-01-16T01:01:53;20.38;;;9.68;;
11671;SDS011;5892;43.412;24.612;2024-01-16T01:04:18;17.83;;;9.30;;
11671;SDS011;5892;43.412;24.612;2024-01-16T01:06:45;23.80;;;10.63;;
11671;SDS011;5892;43.412;24.612;2024-01-16T01:09:10;20.48;;;9.88;;
11671;SDS011;5892;43.412;24.612;2024-01-16T01:11:37;20.92;;;9.90;;
11671;SDS011;5892;43.412;24.612;2024-01-16T01:14:04;22.67;;;10.57;;
11671;SDS011;5892;43.412;24.612;2024-01-16T01:16:31;21.02;;;9.15;;
11671;SDS011;5892;43.412;24.612;2024-01-16T01:18:58;16.48;;;9.80;;
11671;SDS011;5892;43.412;24.612;2024-01-16T01:21:24;21.27;;;9.50;;
11671;SDS011;5892;43.412;24.612;2024-01-16T01:23:49;20.60;;;10.27;;
11671;SDS011;5892;43.412;24.612;2024-01-16T01:26:16;22.17;;;12.15;;
11671;SDS011;5892;43.412;24.612;2024-01-16T01:28:44;19.08;;;9.52;;
11671;SDS011;5892;43.412;24.612;2024-01-16T01:31:11;22.00;;;12.32;;
11671;SDS011;5892;43.412;24.612;2024-01-16T01:33:40;24.15;;;11.18;;
11671;SDS011;5892;43.412;24.612;2024-01-16T01:36:05;22.98;;;11.07;;
11671;SDS011;5892;43.412;24.612;2024-01-16T01:38:31;23.67;;;11.80;;
11671;SDS011;5892;43.412;24.612;2024-01-16T01:40:56;25.33;;;12.48;;
11671;SDS011;5892;43.412;24.612;2024-01-16T01:43:23;28.55;;;12.73;;
11671;SDS011;5892;43.412;24.612;2024-01-16T01:48:47;31.17;;;15.90;;
11671;SDS011;5892;43.412;24.612;2024-01-16T01:51:13;34.90;;;17.33;;
11671;SDS011;5892;43.412;24.612;2024-01-16T01:53:40;33.15;;;15.60;;
11671;SDS011;5892;43.412;24.612;2024-01-16T01:56:10;34.30;;;18.15;;
11671;SDS011;5892;43.412;24.612;2024-01-16T01:58:38;34.40;;;16.23;;
11671;SDS011;5892;43.412;24.612;2024-01-16T02:08:49;39.17;;;18.65;;
11671;SDS011;5892;43.412;24.612;2024-01-16T02:11:16;39.72;;;20.58;;
11671;SDS011;5892;43.412;24.612;2024-01-16T02:13:41;39.65;;;19.00;;
11671;SDS011;5892;43.412;24.612;2024-01-16T02:19:05;40.47;;;19.60;;
11671;SDS011;5892;43.412;24.612;2024-01-16T02:21:33;44.75;;;20.40;;
11671;SDS011;5892;43.412;24.612;2024-01-16T02:24:11;37.85;;;19.15;;
11671;SDS011;5892;43.412;24.612;2024-01-16T02:26:40;38.20;;;18.63;;
11671;SDS011;5892;43.412;24.612;2024-01-16T02:29:07;38.05;;;18.75;;
11671;SDS011;5892;43.412;24.612;2024-01-16T02:31:34;43.00;;;21.35;;
11671;SDS011;5892;43.412;24.612;2024-01-16T02:34:00;46.65;;;22.33;;
11671;SDS011;5892;43.412;24.612;2024-01-16T02:36:27;37.53;;;18.40;;
11671;SDS011;5892;43.412;24.612;2024-01-16T02:38:54;42.30;;;19.25;;
11671;SDS011;5892;43.412;24.612;2024-01-16T02:41:20;45.45;;;19.83;;
11671;SDS011;5892;43.412;24.612;2024-01-16T02:43:47;42.42;;;20.45;;
11671;SDS011;5892;43.412;24.612;2024-01-16T02:46:13;41.75;;;18.15;;
11671;SDS011;5892;43.412;24.612;2024-01-16T02:48:39;40.28;;;19.85;;
11671;SDS011;5892;43.412;24.612;2024-01-16T02:51:05;38.72;;;18.80;;
11671;SDS011;5892;43.412;24.612;2024-01-16T02:53:31;38.65;;;19.33;;
11671;SDS011;5892;43.412;24.612;2024-01-16T02:55:57;39.67;;;19.75;;
11671;SDS011;5892;43.412;24.612;2024-01-16T02:58:28;39.75;;;18.90;;
11671;SDS011;5892;43.412;24.612;2024-01-16T03:00:55;38.13;;;17.80;;
11671;SDS011;5892;43.412;24.612;2024-01-16T03:03:22;36.45;;;19.35;;
11671;SDS011;5892;43.412;24.612;2024-01-16T03:05:50;39.70;;;19.38;;
11671;SDS011;5892;43.412;24.612;2024-01-16T03:08:15;45.20;;;20.77;;
11671;SDS011;5892;43.412;24.612;2024-01-16T03:10:42;36.63;;;18.20;;
11671;SDS011;5892;43.412;24.612;2024-01-16T03:13:08;40.33;;;19.67;;
11671;SDS011;5892;43.412;24.612;2024-01-16T03:15:34;41.63;;;20.75;;
11671;SDS011;5892;43.412;24.612;2024-01-16T03:18:00;39.63;;;19.77;;
11671;SDS011;5892;43.412;24.612;2024-01-16T03:20:28;36.75;;;18.60;;
11671;SDS011;5892;43.412;24.612;2024-01-16T03:22:54;37.13;;;19.20;;
11671;SDS011;5892;43.412;24.612;2024-01-16T03:25:21;40.63;;;20.13;;
11671;SDS011;5892;43.412;24.612;2024-01-16T03:27:47;43.30;;;19.63;;
11671;SDS011;5892;43.412;24.612;2024-01-16T03:30:13;38.97;;;18.02;;
11671;SDS011;5892;43.412;24.612;2024-01-16T03:32:39;39.97;;;18.50;;
11671;SDS011;5892;43.412;24.612;2024-01-16T03:35:05;36.92;;;16.75;;
11671;SDS011;5892;43.412;24.612;2024-01-16T03:37:31;36.75;;;18.63;;
11671;SDS011;5892;43.412;24.612;2024-01-16T03:39:57;32.15;;;16.10;;
11671;SDS011;5892;43.412;24.612;2024-01-16T03:42:23;32.42;;;15.25;;
11671;SDS011;5892;43.412;24.612;2024-01-16T03:44:50;31.25;;;14.73;;
11671;SDS011;5892;43.412;24.612;2024-01-16T03:47:16;31.23;;;14.98;;
11671;SDS011;5892;43.412;24.612;2024-01-16T03:49:43;27.40;;;14.18;;
11671;SDS011;5892;43.412;24.612;2024-01-16T03:52:08;27.35;;;13.55;;
11671;SDS011;5892;43.412;24.612;2024-01-16T03:54:34;25.08;;;11.85;;
11671;SDS011;5892;43.412;24.612;2024-01-16T03:56:59;24.98;;;11.63;;
11671;SDS011;5892;43.412;24.612;2024-01-16T03:59:25;30.30;;;12.15;;
11671;SDS011;5892;43.412;24.612;2024-01-16T04:01:51;21.92;;;10.60;;
11671;SDS011;5892;43.412;24.612;2024-01-16T04:04:17;25.75;;;11.13;;
11671;SDS011;5892;43.412;24.612;2024-01-16T04:06:45;23.27;;;11.05;;
11671;SDS011;5892;43.412;24.612;2024-01-16T04:09:11;25.77;;;10.95;;
11671;SDS011;5892;43.412;24.612;2024-01-16T04:11:37;23.60;;;11.02;;
11671;SDS011;5892;43.412;24.612;2024-01-16T04:14:02;20.83;;;11.05;;
11671;SDS011;5892;43.412;24.612;2024-01-16T04:16:28;21.63;;;12.30;;
11671;SDS011;5892;43.412;24.612;2024-01-16T04:18:54;22.80;;;10.57;;
11671;SDS011;5892;43.412;24.612;2024-01-16T04:21:20;22.55;;;10.73;;
11671;SDS011;5892;43.412;24.612;2024-01-16T04:23:45;21.90;;;10.35;;
11671;SDS011;5892;43.412;24.612;2024-01-16T04:26:11;18.20;;;8.57;;
11671;SDS011;5892;43.412;24.612;2024-01-16T04:28:36;13.70;;;7.40;;
11671;SDS011;5892;43.412;24.612;2024-01-16T04:31:02;15.65;;;8.73;;
11671;SDS011;5892;43.412;24.612;2024-01-16T04:33:31;18.27;;;8.82;;
11671;SDS011;5892;43.412;24.612;2024-01-16T04:35:57;14.40;;;7.45;;
11671;SDS011;5892;43.412;24.612;2024-01-16T04:38:22;15.52;;;7.47;;
11671;SDS011;5892;43.412;24.612;2024-01-16T04:40:49;11.50;;;6.03;;
11671;SDS011;5892;43.412;24.612;2024-01-16T04:43:15;13.65;;;6.15;;
11671;SDS011;5892;43.412;24.612;2024-01-16T04:45:41;11.80;;;6.47;;
11671;SDS011;5892;43.412;24.612;2024-01-16T04:48:06;11.70;;;6.50;;
11671;SDS011;5892;43.412;24.612;2024-01-16T04:50:34;13.10;;;6.28;;
11671;SDS011;5892;43.412;24.612;2024-01-16T04:53:01;11.65;;;6.07;;
11671;SDS011;5892;43.412;24.612;2024-01-16T04:55:28;11.63;;;5.75;;
11671;SDS011;5892;43.412;24.612;2024-01-16T04:57:54;10.90;;;5.22;;
11671;SDS011;5892;43.412;24.612;2024-01-16T05:00:20;9.70;;;5.18;;
11671;SDS011;5892;43.412;24.612;2024-01-16T05:02:45;8.68;;;4.78;;
11671;SDS011;5892;43.412;24.612;2024-01-16T05:05:11;11.43;;;5.65;;
11671;SDS011;5892;43.412;24.612;2024-01-16T05:07:37;10.48;;;4.63;;
11671;SDS011;5892;43.412;24.612;2024-01-16T05:10:03;9.90;;;5.00;;
11671;SDS011;5892;43.412;24.612;2024-01-16T05:12:29;10.32;;;4.55;;
11671;SDS011;5892;43.412;24.612;2024-01-16T05:14:55;11.02;;;5.07;;
11671;SDS011;5892;43.412;24.612;2024-01-16T05:17:21;9.93;;;4.85;;
11671;SDS011;5892;43.412;24.612;2024-01-16T05:19:46;10.27;;;4.75;;
11671;SDS011;5892;43.412;24.612;2024-01-16T05:22:12;8.57;;;4.05;;
11671;SDS011;5892;43.412;24.612;2024-01-16T05:24:37;7.05;;;3.85;;
11671;SDS011;5892;43.412;24.612;2024-01-16T05:27:03;9.48;;;4.90;;
11671;SDS011;5892;43.412;24.612;2024-01-16T05:29:29;7.53;;;3.83;;
11671;SDS011;5892;43.412;24.612;2024-01-16T05:31:56;7.97;;;3.70;;
11671;SDS011;5892;43.412;24.612;2024-01-16T05:34:21;9.13;;;3.50;;
11671;SDS011;5892;43.412;24.612;2024-01-16T05:36:47;7.45;;;3.03;;
11671;SDS011;5892;43.412;24.612;2024-01-16T05:39:12;7.30;;;3.05;;
11671;SDS011;5892;43.412;24.612;2024-01-16T05:41:38;5.72;;;2.40;;
11671;SDS011;5892;43.412;24.612;2024-01-16T05:44:03;7.15;;;2.95;;
11671;SDS011;5892;43.412;24.612;2024-01-16T05:46:33;9.18;;;3.15;;
11671;SDS011;5892;43.412;24.612;2024-01-16T05:48:58;7.75;;;3.70;;
11671;SDS011;5892;43.412;24.612;2024-01-16T05:51:27;5.47;;;2.88;;
11671;SDS011;5892;43.412;24.612;2024-01-16T05:53:54;5.22;;;3.03;;
11671;SDS011;5892;43.412;24.612;2024-01-16T05:56:19;6.03;;;2.65;;
11671;SDS011;5892;43.412;24.612;2024-01-16T05:58:46;4.28;;;2.33;;
11671;SDS011;5892;43.412;24.612;2024-01-16T06:01:11;4.50;;;2.33;;
11671;SDS011;5892;43.412;24.612;2024-01-16T06:03:40;5.40;;;2.35;;
11671;SDS011;5892;43.412;24.612;2024-01-16T06:06:06;4.60;;;2.00;;
11671;SDS011;5892;43.412;24.612;2024-01-16T06:08:32;3.83;;;1.75;;
11671;SDS011;5892;43.412;24.612;2024-01-16T06:10:58;5.05;;;1.83;;
11671;SDS011;5892;43.412;24.612;2024-01-16T06:13:25;3.80;;;1.75;;
11671;SDS011;5892;43.412;24.612;2024-01-16T06:15:53;2.55;;;1.48;;
11671;SDS011;5892;43.412;24.612;2024-01-16T06:18:18;3.28;;;1.50;;
11671;SDS011;5892;43.412;24.612;2024-01-16T06:20:43;3.05;;;1.85;;
11671;SDS011;5892;43.412;24.612;2024-01-16T06:23:09;5.13;;;2.28;;
11671;SDS011;5892;43.412;24.612;2024-01-16T06:25:34;9.50;;;3.15;;
11671;SDS011;5892;43.412;24.612;2024-01-16T06:28:00;7.13;;;1.85;;
11671;SDS011;5892;43.412;24.612;2024-01-16T06:30:25;7.95;;;2.65;;
11671;SDS011;5892;43.412;24.612;2024-01-16T06:32:51;8.02;;;2.42;;
11671;SDS011;5892;43.412;24.612;2024-01-16T06:35:16;9.63;;;2.47;;
11671;SDS011;5892;43.412;24.612;2024-01-16T06:37:42;6.38;;;2.38;;
11671;SDS011;5892;43.412;24.612;2024-01-16T06:40:08;18.70;;;4.43;;
11671;SDS011;5892;43.412;24.612;2024-01-16T06:42:34;10.27;;;3.72;;
11671;SDS011;5892;43.412;24.612;2024-01-16T06:45:01;3.85;;;1.52;;
11671;SDS011;5892;43.412;24.612;2024-01-16T06:47:27;2.03;;;0.88;;
11671;SDS011;5892;43.412;24.612;2024-01-16T06:49:52;5.68;;;1.77;;
11671;SDS011;5892;43.412;24.612;2024-01-16T06:52:18;1.52;;;0.60;;
11671;SDS011;5892;43.412;24.612;2024-01-16T06:54:44;2.47;;;1.27;;
11671;SDS011;5892;43.412;24.612;2024-01-16T07:00:33;3.85;;;1.58;;
11671;SDS011;5892;43.412;24.612;2024-01-16T07:02:58;5.93;;;2.47;;
11671;SDS011;5892;43.412;24.612;2024-01-16T07:08:46;7.75;;;2.20;;
11671;SDS011;5892;43.412;24.612;2024-01-16T07:13:52;11.10;;;1.77;;
11671;SDS011;5892;43.412;24.612;2024-01-16T07:16:18;6.68;;;2.25;;
11671;SDS011;5892;43.412;24.612;2024-01-16T07:18:43;9.55;;;2.67;;
11671;SDS011;5892;43.412;24.612;2024-01-16T07:21:16;3.85;;;1.55;;
11671;SDS011;5892;43.412;24.612;2024-01-16T07:23:45;3.97;;;1.85;;
11671;SDS011;5892;43.412;24.612;2024-01-16T07:26:10;6.20;;;2.78;;
11671;SDS011;5892;43.412;24.612;2024-01-16T07:28:36;5.22;;;1.73;;
11671;SDS011;5892;43.412;24.612;2024-01-16T07:31:01;8.60;;;2.95;;
11671;SDS011;5892;43.412;24.612;2024-01-16T07:33:28;5.00;;;1.95;;
11671;SDS011;5892;43.412;24.612;2024-01-16T07:35:53;8.20;;;3.08;;
11671;SDS011;5892;43.412;24.612;2024-01-16T07:38:20;7.78;;;2.17;;
11671;SDS011;5892;43.412;24.612;2024-01-16T07:40:45;8.65;;;3.08;;
11671;SDS011;5892;43.412;24.612;2024-01-16T07:43:11;8.30;;;2.47;;
11671;SDS011;5892;43.412;24.612;2024-01-16T07:45:37;4.63;;;1.70;;
11671;SDS011;5892;43.412;24.612;2024-01-16T07:48:02;11.98;;;3.40;;
11671;SDS011;5892;43.412;24.612;2024-01-16T07:50:29;8.82;;;2.78;;
11671;SDS011;5892;43.412;24.612;2024-01-16T07:52:55;4.35;;;2.10;;
11671;SDS011;5892;43.412;24.612;2024-01-16T07:55:20;9.98;;;3.42;;
11671;SDS011;5892;43.412;24.612;2024-01-16T07:57:46;24.65;;;8.05;;
11671;SDS011;5892;43.412;24.612;2024-01-16T08:00:12;19.42;;;6.00;;
11671;SDS011;5892;43.412;24.612;2024-01-16T08:02:37;11.77;;;4.30;;
11671;SDS011;5892;43.412;24.612;2024-01-16T08:05:03;7.22;;;3.13;;
11671;SDS011;5892;43.412;24.612;2024-01-16T08:07:29;9.68;;;2.45;;
11671;SDS011;5892;43.412;24.612;2024-01-16T08:09:55;4.03;;;1.73;;
11671;SDS011;5892;43.412;24.612;2024-01-16T08:12:21;6.00;;;2.03;;
11671;SDS011;5892;43.412;24.612;2024-01-16T08:14:48;8.00;;;3.50;;
11671;SDS011;5892;43.412;24.612;2024-01-16T08:17:14;8.40;;;3.08;;
11671;SDS011;5892;43.412;24.612;2024-01-16T08:19:40;5.30;;;2.15;;
11671;SDS011;5892;43.412;24.612;2024-01-16T08:22:06;8.25;;;3.00;;
11671;SDS011;5892;43.412;24.612;2024-01-16T08:24:31;6.28;;;2.92;;
11671;SDS011;5892;43.412;24.612;2024-01-16T08:26:57;6.32;;;3.03;;
11671;SDS011;5892;43.412;24.612;2024-01-16T08:29:23;2.58;;;1.00;;
11671;SDS011;5892;43.412;24.612;2024-01-16T08:31:49;11.05;;;3.95;;
11671;SDS011;5892;43.412;24.612;2024-01-16T08:34:19;2.70;;;1.30;;
11671;SDS011;5892;43.412;24.612;2024-01-16T08:36:45;6.93;;;3.80;;
11671;SDS011;5892;43.412;24.612;2024-01-16T08:39:11;8.70;;;3.78;;
11671;SDS011;5892;43.412;24.612;2024-01-16T08:41:37;13.25;;;5.53;;
11671;SDS011;5892;43.412;24.612;2024-01-16T08:44:02;5.00;;;2.50;;
11671;SDS011;5892;43.412;24.612;2024-01-16T08:46:29;10.55;;;4.55;;
11671;SDS011;5892;43.412;24.612;2024-01-16T08:48:55;2.67;;;1.52;;
11671;SDS011;5892;43.412;24.612;2024-01-16T08:51:20;8.80;;;4.45;;
11671;SDS011;5892;43.412;24.612;2024-01-16T08:53:45;6.32;;;2.78;;
11671;SDS011;5892;43.412;24.612;2024-01-16T08:56:11;5.60;;;2.13;;
11671;SDS011;5892;43.412;24.612;2024-01-16T08:58:41;6.72;;;2.33;;
11671;SDS011;5892;43.412;24.612;2024-01-16T09:01:07;7.82;;;3.22;;
11671;SDS011;5892;43.412;24.612;2024-01-16T09:03:35;5.55;;;2.85;;
11671;SDS011;5892;43.412;24.612;2024-01-16T09:06:01;3.45;;;2.00;;
11671;SDS011;5892;43.412;24.612;2024-01-16T09:08:27;4.38;;;2.10;;
11671;SDS011;5892;43.412;24.612;2024-01-16T09:10:53;5.80;;;2.55;;
11671;SDS011;5892;43.412;24.612;2024-01-16T09:13:19;3.58;;;1.73;;
11671;SDS011;5892;43.412;24.612;2024-01-16T09:15:48;7.43;;;3.53;;
11671;SDS011;5892;43.412;24.612;2024-01-16T09:18:15;5.97;;;2.20;;
11671;SDS011;5892;43.412;24.612;2024-01-16T09:20:41;5.15;;;2.50;;
11671;SDS011;5892;43.412;24.612;2024-01-16T09:23:08;3.97;;;1.98;;
11671;SDS011;5892;43.412;24.612;2024-01-16T09:25:34;3.72;;;1.95;;
11671;SDS011;5892;43.412;24.612;2024-01-16T09:28:00;6.65;;;2.85;;
11671;SDS011;5892;43.412;24.612;2024-01-16T09:30:26;4.75;;;1.50;;
11671;SDS011;5892;43.412;24.612;2024-01-16T09:32:51;3.90;;;1.70;;
11671;SDS011;5892;43.412;24.612;2024-01-16T09:35:17;6.20;;;2.70;;
11671;SDS011;5892;43.412;24.612;2024-01-16T09:37:43;5.40;;;2.92;;
11671;SDS011;5892;43.412;24.612;2024-01-16T09:40:09;4.43;;;1.95;;
11671;SDS011;5892;43.412;24.612;2024-01-16T09:42:35;6.10;;;2.00;;
11671;SDS011;5892;43.412;24.612;2024-01-16T09:45:01;4.32;;;2.33;;
11671;SDS011;5892;43.412;24.612;2024-01-16T09:47:30;5.40;;;2.30;;
11671;SDS011;5892;43.412;24.612;2024-01-16T09:49:57;5.57;;;2.55;;
11671;SDS011;5892;43.412;24.612;2024-01-16T09:52:25;4.63;;;2.28;;
11671;SDS011;5892;43.412;24.612;2024-01-16T09:54:50;5.20;;;2.42;;
11671;SDS011;5892;43.412;24.612;2024-01-16T09:57:17;3.47;;;2.03;;
11671;SDS011;5892;43.412;24.612;2024-01-16T09:59:47;4.25;;;2.00;;
11671;SDS011;5892;43.412;24.612;2024-01-16T10:02:13;7.60;;;2.55;;
11671;SDS011;5892;43.412;24.612;2024-01-16T10:04:43;7.63;;;2.88;;
11671;SDS011;5892;43.412;24.612;2024-01-16T10:07:09;6.28;;;2.78;;
11671;SDS011;5892;43.412;24.612;2024-01-16T10:09:38;7.40;;;3.60;;
11671;SDS011;5892;43.412;24.612;2024-01-16T10:12:06;5.10;;;2.55;;
11671;SDS011;5892;43.412;24.612;2024-01-16T10:14:32;5.80;;;2.33;;
11671;SDS011;5892;43.412;24.612;2024-01-16T10:17:02;4.05;;;2.10;;
11671;SDS011;5892;43.412;24.612;2024-01-16T10:19:51;6.60;;;3.05;;
11671;SDS011;5892;43.412;24.612;2024-01-16T10:22:21;4.03;;;1.95;;
11671;SDS011;5892;43.412;24.612;2024-01-16T10:24:50;6.20;;;2.70;;
11671;SDS011;5892;43.412;24.612;2024-01-16T10:27:28;10.77;;;5.07;;
11671;SDS011;5892;43.412;24.612;2024-01-16T10:29:56;10.48;;;3.72;;
11671;SDS011;5892;43.412;24.612;2024-01-16T10:32:35;12.52;;;4.22;;
11671;SDS011;5892;43.412;24.612;2024-01-16T10:40:26;6.47;;;2.55;;
11671;SDS011;5892;43.412;24.612;2024-01-16T10:45:24;5.78;;;2.55;;
11671;SDS011;5892;43.412;24.612;2024-01-16T10:48:00;9.07;;;2.03;;
11671;SDS011;5892;43.412;24.612;2024-01-16T10:50:30;4.60;;;2.70;;
11671;SDS011;5892;43.412;24.612;2024-01-16T10:52:56;10.00;;;3.85;;
11671;SDS011;5892;43.412;24.612;2024-01-16T10:55:25;16.88;;;6.30;;
11671;SDS011;5892;43.412;24.612;2024-01-16T10:57:53;12.85;;;3.72;;
11671;SDS011;5892;43.412;24.612;2024-01-16T11:00:22;15.77;;;5.10;;
11671;SDS011;5892;43.412;24.612;2024-01-16T11:03:07;14.85;;;4.65;;
11671;SDS011;5892;43.412;24.612;2024-01-16T11:05:36;15.45;;;5.20;;
11671;SDS011;5892;43.412;24.612;2024-01-16T11:08:04;15.73;;;4.90;;
11671;SDS011;5892;43.412;24.612;2024-01-16T11:10:35;17.55;;;5.60;;
11671;SDS011;5892;43.412;24.612;2024-01-16T11:13:02;22.52;;;6.18;;
11671;SDS011;5892;43.412;24.612;2024-01-16T11:15:30;16.80;;;5.10;;
11671;SDS011;5892;43.412;24.612;2024-01-16T11:17:56;13.40;;;4.07;;
11671;SDS011;5892;43.412;24.612;2024-01-16T11:20:24;11.43;;;4.18;;
11671;SDS011;5892;43.412;24.612;2024-01-16T11:22:53;11.45;;;4.85;;
11671;SDS011;5892;43.412;24.612;2024-01-16T11:25:30;8.88;;;4.18;;
11671;SDS011;5892;43.412;24.612;2024-01-16T11:28:19;8.15;;;3.30;;
11671;SDS011;5892;43.412;24.612;2024-01-16T11:30:45;7.28;;;3.17;;
11671;SDS011;5892;43.412;24.612;2024-01-16T11:35:56;5.85;;;2.80;;
11671;SDS011;5892;43.412;24.612;2024-01-16T11:38:21;7.47;;;2.92;;
11671;SDS011;5892;43.412;24.612;2024-01-16T11:40:52;7.05;;;3.88;;
11671;SDS011;5892;43.412;24.612;2024-01-16T11:45:57;6.32;;;2.70;;
11671;SDS011;5892;43.412;24.612;2024-01-16T11:48:23;5.82;;;3.13;;
11671;SDS011;5892;43.412;24.612;2024-01-16T11:50:52;4.32;;;2.90;;
11671;SDS011;5892;43.412;24.612;2024-01-16T11:58:48;4.22;;;2.65;;
11671;SDS011;5892;43.412;24.612;2024-01-16T12:01:26;6.10;;;2.85;;
11671;SDS011;5892;43.412;24.612;2024-01-16T12:04:07;7.78;;;3.05;;
11671;SDS011;5892;43.412;24.612;2024-01-16T12:06:39;8.43;;;2.83;;
11671;SDS011;5892;43.412;24.612;2024-01-16T12:09:14;6.85;;;3.35;;
11671;SDS011;5892;43.412;24.612;2024-01-16T12:14:29;4.97;;;2.80;;
11671;SDS011;5892;43.412;24.612;2024-01-16T12:17:10;5.53;;;2.78;;
11671;SDS011;5892;43.412;24.612;2024-01-16T12:19:36;4.90;;;2.33;;
11671;SDS011;5892;43.412;24.612;2024-01-16T12:22:05;4.35;;;2.50;;
11671;SDS011;5892;43.412;24.612;2024-01-16T12:24:36;6.13;;;2.90;;
11671;SDS011;5892;43.412;24.612;2024-01-16T12:27:03;4.55;;;2.40;;
11671;SDS011;5892;43.412;24.612;2024-01-16T12:29:30;3.35;;;2.13;;
11671;SDS011;5892;43.412;24.612;2024-01-16T12:32:06;7.40;;;2.90;;
11671;SDS011;5892;43.412;24.612;2024-01-16T12:34:43;6.40;;;2.85;;
11671;SDS011;5892;43.412;24.612;2024-01-16T12:37:11;4.70;;;2.65;;
11671;SDS011;5892;43.412;24.612;2024-01-16T12:39:37;5.78;;;2.30;;
11671;SDS011;5892;43.412;24.612;2024-01-16T12:42:04;5.30;;;2.42;;
11671;SDS011;5892;43.412;24.612;2024-01-16T12:44:30;7.78;;;2.17;;
11671;SDS011;5892;43.412;24.612;2024-01-16T12:46:56;5.53;;;2.50;;
11671;SDS011;5892;43.412;24.612;2024-01-16T12:49:24;3.60;;;1.98;;
11671;SDS011;5892;43.412;24.612;2024-01-16T12:51:50;3.63;;;1.92;;
11671;SDS011;5892;43.412;24.612;2024-01-16T12:54:17;4.93;;;1.58;;
11671;SDS011;5892;43.412;24.612;2024-01-16T12:56:47;3.75;;;1.48;;
11671;SDS011;5892;43.412;24.612;2024-01-16T12:59:14;3.85;;;1.50;;
11671;SDS011;5892;43.412;24.612;2024-01-16T13:01:44;2.22;;;1.25;;
11671;SDS011;5892;43.412;24.612;2024-01-16T13:06:37;3.80;;;1.50;;
11671;SDS011;5892;43.412;24.612;2024-01-16T13:09:04;3.05;;;1.58;;
11671;SDS011;5892;43.412;24.612;2024-01-16T13:11:44;3.30;;;1.63;;
11671;SDS011;5892;43.412;24.612;2024-01-16T13:14:13;2.85;;;1.15;;
11671;SDS011;5892;43.412;24.612;2024-01-16T13:16:39;3.85;;;1.05;;
11671;SDS011;5892;43.412;24.612;2024-01-16T13:19:05;3.33;;;1.38;;
11671;SDS011;5892;43.412;24.612;2024-01-16T13:21:34;2.08;;;1.20;;
11671;SDS011;5892;43.412;24.612;2024-01-16T13:24:02;2.67;;;1.40;;
11671;SDS011;5892;43.412;24.612;2024-01-16T13:26:28;4.28;;;1.83;;
11671;SDS011;5892;43.412;24.612;2024-01-16T13:28:54;2.95;;;1.40;;
11671;SDS011;5892;43.412;24.612;2024-01-16T13:31:20;2.47;;;1.33;;
11671;SDS011;5892;43.412;24.612;2024-01-16T13:33:45;5.72;;;1.48;;
11671;SDS011;5892;43.412;24.612;2024-01-16T13:36:12;3.25;;;1.80;;
11671;SDS011;5892;43.412;24.612;2024-01-16T13:38:38;2.47;;;1.30;;
11671;SDS011;5892;43.412;24.612;2024-01-16T13:41:03;5.75;;;1.83;;
11671;SDS011;5892;43.412;24.612;2024-01-16T13:43:29;2.17;;;1.42;;
11671;SDS011;5892;43.412;24.612;2024-01-16T13:45:54;3.50;;;1.60;;
11671;SDS011;5892;43.412;24.612;2024-01-16T13:48:20;4.65;;;2.10;;
11671;SDS011;5892;43.412;24.612;2024-01-16T13:50:46;3.58;;;2.13;;
11671;SDS011;5892;43.412;24.612;2024-01-16T13:53:12;3.75;;;1.92;;
11671;SDS011;5892;43.412;24.612;2024-01-16T13:55:41;3.42;;;1.80;;
11671;SDS011;5892;43.412;24.612;2024-01-16T13:58:07;2.95;;;1.63;;
11671;SDS011;5892;43.412;24.612;2024-01-16T14:00:33;3.97;;;1.55;;
11671;SDS011;5892;43.412;24.612;2024-01-16T14:02:58;3.35;;;1.67;;
11671;SDS011;5892;43.412;24.612;2024-01-16T14:05:25;5.03;;;2.47;;
11671;SDS011;5892;43.412;24.612;2024-01-16T14:07:51;3.75;;;1.83;;
11671;SDS011;5892;43.412;24.612;2024-01-16T14:10:21;3.53;;;2.28;;
11671;SDS011;5892;43.412;24.612;2024-01-16T14:12:50;2.70;;;1.40;;
11671;SDS011;5892;43.412;24.612;2024-01-16T14:15:17;3.67;;;1.60;;
11671;SDS011;5892;43.412;24.612;2024-01-16T14:17:49;4.22;;;1.50;;
11671;SDS011;5892;43.412;24.612;2024-01-16T14:20:16;3.50;;;1.95;;
11671;SDS011;5892;43.412;24.612;2024-01-16T14:22:43;3.88;;;2.00;;
11671;SDS011;5892;43.412;24.612;2024-01-16T14:25:09;3.85;;;2.28;;
11671;SDS011;5892;43.412;24.612;2024-01-16T14:27:39;3.00;;;2.22;;
11671;SDS011;5892;43.412;24.612;2024-01-16T14:30:07;6.55;;;3.83;;
11671;SDS011;5892;43.412;24.612;2024-01-16T14:32:36;4.40;;;2.42;;
11671;SDS011;5892;43.412;24.612;2024-01-16T14:35:06;6.28;;;2.70;;
11671;SDS011;5892;43.412;24.612;2024-01-16T14:37:36;5.50;;;3.25;;
11671;SDS011;5892;43.412;24.612;2024-01-16T14:40:07;3.83;;;2.45;;
11671;SDS011;5892;43.412;24.612;2024-01-16T14:42:53;6.50;;;3.03;;
11671;SDS011;5892;43.412;24.612;2024-01-16T14:45:24;4.43;;;2.55;;
11671;SDS011;5892;43.412;24.612;2024-01-16T14:47:51;6.05;;;3.25;;
11671;SDS011;5892;43.412;24.612;2024-01-16T14:50:18;6.40;;;3.38;;
11671;SDS011;5892;43.412;24.612;2024-01-16T14:52:45;10.43;;;4.55;;
11671;SDS011;5892;43.412;24.612;2024-01-16T14:57:47;9.10;;;3.47;;
11671;SDS011;5892;43.412;24.612;2024-01-16T15:00:37;5.47;;;3.33;;
11671;SDS011;5892;43.412;24.612;2024-01-16T15:03:04;13.20;;;5.95;;
11671;SDS011;5892;43.412;24.612;2024-01-16T15:05:30;10.13;;;4.90;;
11671;SDS011;5892;43.412;24.612;2024-01-16T15:07:58;8.70;;;4.30;;
11671;SDS011;5892;43.412;24.612;2024-01-16T15:10:24;33.38;;;11.82;;
11671;SDS011;5892;43.412;24.612;2024-01-16T15:13:08;42.10;;;14.45;;
11671;SDS011;5892;43.412;24.612;2024-01-16T15:15:34;20.48;;;9.43;;
11671;SDS011;5892;43.412;24.612;2024-01-16T15:18:02;12.23;;;6.65;;
11671;SDS011;5892;43.412;24.612;2024-01-16T15:20:29;9.93;;;5.28;;
11671;SDS011;5892;43.412;24.612;2024-01-16T15:22:54;9.50;;;5.13;;
11671;SDS011;5892;43.412;24.612;2024-01-16T15:25:20;22.55;;;9.23;;
11671;SDS011;5892;43.412;24.612;2024-01-16T15:27:49;15.80;;;8.65;;